Time;durP1;ratioP1;P1;durP2;ratioP2;P2;SDS_P1;SDS_P2;PMS_P1;PMS_P2;Temp;Humidity;BMP_temperature;BMP_pressure;BME280_temperature;BME280_humidity;BME280_pressure;Samples;Min_cycle;Max_cycle;Signal;HPM_P1;HPM_P2
2022/04/08 00:01:22;;;;;;;49.33;28.13;;;8.20;78.50;;;;;;5096879;28;20396;-12
2022/04/08 00:03:49;;;;;;;64.40;33.58;;;8.20;78.80;;;;;;5096794;28;20012;-12
2022/04/08 00:06:16;;;;;;;53.42;30.00;;;8.10;79.80;;;;;;5096244;28;20120;-12
2022/04/08 00:08:42;;;;;;;62.22;32.55;;;8.10;79.40;;;;;;5094462;28;20450;-12
2022/04/08 00:11:08;;;;;;;60.70;31.25;;;8.10;79.30;;;;;;5096965;28;20480;-11
2022/04/08 00:13:35;;;;;;;53.08;30.25;;;8.00;79.40;;;;;;5096414;28;20035;-12
2022/04/08 00:16:00;;;;;;;66.15;36.03;;;8.00;79.60;;;;;;5096458;28;20107;-12
2022/04/08 00:18:29;;;;;;;55.38;31.17;;;8.00;79.60;;;;;;5096050;28;20055;-12
2022/04/08 00:20:55;;;;;;;45.38;27.20;;;8.00;79.70;;;;;;5096344;28;20032;-12
2022/04/08 00:23:21;;;;;;;61.95;33.20;;;7.90;79.80;;;;;;5096526;28;20047;-13
2022/04/08 00:25:47;;;;;;;50.60;28.13;;;8.00;79.80;;;;;;5096439;28;20107;-12
2022/04/08 00:28:13;;;;;;;53.38;30.23;;;7.90;79.70;;;;;;5096136;28;20043;-13
2022/04/08 00:30:39;;;;;;;52.33;28.75;;;7.90;80.20;;;;;;5096028;28;20224;-12
2022/04/08 00:33:05;;;;;;;53.97;29.42;;;7.90;79.80;;;;;;5096273;28;20024;-12
2022/04/08 00:35:31;;;;;;;55.13;29.45;;;7.90;79.80;;;;;;5096213;28;20028;-12
2022/04/08 00:37:57;;;;;;;59.70;31.75;;;7.90;79.80;;;;;;5096251;28;20055;-11
2022/04/08 00:40:23;;;;;;;61.83;33.38;;;7.90;79.60;;;;;;5095823;28;20078;-12
2022/04/08 00:42:49;;;;;;;62.92;35.00;;;7.90;79.60;;;;;;5095765;28;20075;-12
2022/04/08 00:45:15;;;;;;;54.33;29.80;;;7.80;79.80;;;;;;5095765;28;20062;-12
2022/04/08 00:47:44;;;;;;;51.05;30.27;;;7.70;80.00;;;;;;5095964;28;20056;-12
2022/04/08 00:50:12;;;;;;;55.45;29.42;;;7.70;80.20;;;;;;5096041;28;20051;-12
2022/04/08 00:52:41;;;;;;;55.45;31.73;;;7.70;80.60;;;;;;5095907;28;20032;-12
2022/04/08 00:55:10;;;;;;;53.33;30.40;;;7.70;80.20;;;;;;5095878;28;20081;-13
2022/04/08 00:57:36;;;;;;;50.83;28.58;;;7.70;80.40;;;;;;5095587;28;20585;-12
2022/04/08 01:00:08;;;;;;;43.28;23.38;;;7.60;80.30;;;;;;5095722;28;20035;-13
2022/04/08 01:02:34;;;;;;;51.97;28.88;;;7.60;80.20;;;;;;5095642;28;20029;-13
2022/04/08 01:05:00;;;;;;;56.17;30.05;;;7.60;80.20;;;;;;5095694;28;20101;-13
2022/04/08 01:07:27;;;;;;;53.95;29.45;;;7.60;80.30;;;;;;5095585;28;20101;-13
2022/04/08 01:09:54;;;;;;;67.38;36.65;;;7.50;80.50;;;;;;5095324;28;20044;-12
2022/04/08 01:12:20;;;;;;;67.50;36.10;;;7.50;80.30;;;;;;5094806;28;20039;-12
2022/04/08 01:14:46;;;;;;;70.30;37.67;;;7.50;80.30;;;;;;5095112;28;20103;-12
2022/04/08 01:17:12;;;;;;;77.82;39.40;;;7.40;80.40;;;;;;5095146;28;20537;-13
2022/04/08 01:19:38;;;;;;;67.00;34.25;;;7.40;80.80;;;;;;5093858;28;20023;-12
2022/04/08 01:22:04;;;;;;;59.85;33.28;;;7.30;81.10;;;;;;5095574;28;20027;-12
2022/04/08 01:24:35;;;;;;;73.13;38.00;;;7.30;80.80;;;;;;5095454;28;20392;-12
2022/04/08 01:27:02;;;;;;;59.28;31.75;;;7.30;81.30;;;;;;5095655;28;20468;-13
2022/04/08 01:29:28;;;;;;;73.25;35.40;;;7.20;80.90;;;;;;5095307;28;20555;-12
2022/04/08 01:31:54;;;;;;;81.18;43.20;;;7.20;81.40;;;;;;5094898;28;20376;-12
2022/04/08 01:34:20;;;;;;;72.93;38.75;;;7.20;81.20;;;;;;5094941;28;20032;-12
2022/04/08 01:36:46;;;;;;;59.50;31.75;;;7.10;82.00;;;;;;5095005;28;20357;-12
2022/04/08 01:39:12;;;;;;;57.05;30.77;;;7.00;82.00;;;;;;5095493;28;20020;-12
2022/04/08 01:41:38;;;;;;;61.42;35.28;;;7.00;81.70;;;;;;5095031;28;20482;-12
2022/04/08 01:44:04;;;;;;;52.35;28.15;;;7.00;81.60;;;;;;5095294;28;20047;-12
2022/04/08 01:46:30;;;;;;;63.97;34.10;;;7.00;81.50;;;;;;5094517;28;20029;-12
2022/04/08 01:48:56;;;;;;;45.90;24.45;;;6.90;81.80;;;;;;5094575;28;20024;-12
2022/04/08 01:51:23;;;;;;;67.68;36.03;;;6.80;81.40;;;;;;5094730;28;20024;-13
2022/04/08 01:53:50;;;;;;;65.88;34.90;;;6.80;81.60;;;;;;5094478;28;20032;-12
2022/04/08 01:56:16;;;;;;;51.53;27.70;;;6.80;81.60;;;;;;5094230;28;20031;-13
2022/04/08 01:58:42;;;;;;;52.55;28.42;;;6.70;81.50;;;;;;5094342;28;20036;-13
2022/04/08 02:01:08;;;;;;;63.35;32.78;;;6.70;81.60;;;;;;5094468;28;20034;-12
2022/04/08 02:03:34;;;;;;;51.63;27.55;;;6.70;81.70;;;;;;5094280;28;20028;-13
2022/04/08 02:06:00;;;;;;;48.78;27.20;;;6.70;81.60;;;;;;5094262;28;20036;-13
2022/04/08 02:08:26;;;;;;;70.60;37.92;;;6.70;81.60;;;;;;5093940;28;20169;-12
2022/04/08 02:10:55;;;;;;;50.63;28.00;;;6.70;81.60;;;;;;5094632;28;20060;-13
2022/04/08 02:13:21;;;;;;;55.35;30.73;;;6.70;81.60;;;;;;5094077;28;20031;-13
2022/04/08 02:15:47;;;;;;;64.28;34.83;;;6.70;81.80;;;;;;5094180;28;20024;-12
2022/04/08 02:18:14;;;;;;;59.38;31.63;;;6.60;82.20;;;;;;5093827;28;20457;-13
2022/04/08 02:20:42;;;;;;;58.03;32.40;;;6.50;81.80;;;;;;5094124;28;20028;-13
2022/04/08 02:23:08;;;;;;;51.78;27.58;;;6.50;81.80;;;;;;5093022;28;20484;-12
2022/04/08 02:25:34;;;;;;;49.97;25.55;;;6.50;81.80;;;;;;5094075;28;20020;-13
2022/04/08 02:28:02;;;;;;;54.33;28.88;;;6.50;81.80;;;;;;5092812;28;20038;-11
2022/04/08 02:30:28;;;;;;;57.75;32.55;;;6.40;81.80;;;;;;5093570;28;20024;-13
2022/04/08 02:32:55;;;;;;;59.60;31.67;;;6.40;81.80;;;;;;5092502;28;20034;-12
2022/04/08 02:35:21;;;;;;;63.17;31.95;;;6.40;81.60;;;;;;5094485;28;20020;-12
2022/04/08 02:37:47;;;;;;;50.60;30.20;;;6.30;81.70;;;;;;5093901;28;20061;-13
2022/04/08 02:40:13;;;;;;;46.35;25.20;;;6.30;81.90;;;;;;5092347;28;20028;-12
2022/04/08 02:42:39;;;;;;;55.25;29.23;;;6.30;82.00;;;;;;5093954;28;20361;-13
2022/04/08 02:45:05;;;;;;;55.25;30.63;;;6.30;82.10;;;;;;5094195;28;20045;-13
2022/04/08 02:47:31;;;;;;;53.38;28.75;;;6.30;82.30;;;;;;5093863;28;20157;-12
2022/04/08 02:49:57;;;;;;;55.10;30.80;;;6.30;81.90;;;;;;5093507;28;20020;-12
2022/04/08 02:52:23;;;;;;;46.90;26.17;;;6.20;81.80;;;;;;5093559;28;20028;-12
2022/04/08 02:54:49;;;;;;;47.60;26.65;;;6.20;81.90;;;;;;5093801;28;20395;-13
2022/04/08 02:57:14;;;;;;;75.00;38.42;;;6.20;81.90;;;;;;5093702;28;20039;-12
2022/04/08 02:59:40;;;;;;;76.13;40.63;;;6.20;82.00;;;;;;5093264;28;20445;-13
2022/04/08 03:02:06;;;;;;;58.63;32.55;;;6.10;82.40;;;;;;5093650;28;20077;-13
2022/04/08 03:04:32;;;;;;;64.30;34.90;;;6.10;82.00;;;;;;5093049;28;20024;-13
2022/04/08 03:07:00;;;;;;;60.00;31.73;;;6.10;82.00;;;;;;5093501;28;20097;-12
2022/04/08 03:09:25;;;;;;;63.70;33.90;;;6.10;82.20;;;;;;5093146;28;20085;-13
2022/04/08 03:11:51;;;;;;;60.88;32.42;;;6.00;82.50;;;;;;5093712;28;20457;-11
2022/04/08 03:14:17;;;;;;;53.72;30.77;;;6.00;82.30;;;;;;5093251;28;20043;-14
2022/04/08 03:16:43;;;;;;;55.10;29.75;;;6.00;82.20;;;;;;5093119;28;20020;-12
2022/04/08 03:19:09;;;;;;;64.57;32.33;;;6.00;82.50;;;;;;5093076;28;20027;-12
2022/04/08 03:21:35;;;;;;;54.85;32.28;;;6.00;82.30;;;;;;5092975;28;20028;-12
2022/04/08 03:24:00;;;;;;;65.82;34.45;;;6.00;82.20;;;;;;5093421;28;20031;-12
2022/04/08 03:26:26;;;;;;;62.80;34.55;;;5.90;82.30;;;;;;5092870;28;20028;-13
2022/04/08 03:28:52;;;;;;;61.05;34.35;;;5.90;82.50;;;;;;5093046;28;20051;-12
2022/04/08 03:31:18;;;;;;;55.97;31.88;;;5.90;82.60;;;;;;5093443;28;20098;-13
2022/04/08 03:33:43;;;;;;;67.00;35.85;;;5.90;82.60;;;;;;5093430;28;20086;-13
2022/04/08 03:36:09;;;;;;;82.50;42.10;;;5.90;82.30;;;;;;5097314;28;20373;-12
2022/04/08 03:38:36;;;;;;;55.70;30.17;;;5.90;82.40;;;;;;5096938;28;20484;-13
2022/04/08 03:41:02;;;;;;;52.70;28.85;;;5.90;82.50;;;;;;5097261;28;20021;-13
2022/04/08 03:43:28;;;;;;;58.03;31.92;;;5.90;82.50;;;;;;5097355;28;20032;-12
2022/04/08 03:45:54;;;;;;;51.95;29.00;;;5.90;82.50;;;;;;5096957;28;20035;-13
2022/04/08 03:48:20;;;;;;;61.65;33.22;;;5.90;82.30;;;;;;5096771;28;20032;-12
2022/04/08 03:50:45;;;;;;;72.97;37.90;;;5.90;82.20;;;;;;5097154;28;20021;-13
2022/04/08 03:53:12;;;;;;;52.72;28.73;;;5.90;82.50;;;;;;5097047;28;20388;-12
2022/04/08 03:55:40;;;;;;;56.58;29.77;;;5.90;82.60;;;;;;5097026;28;20085;-12
2022/04/08 03:58:07;;;;;;;50.80;27.75;;;5.90;82.50;;;;;;5096997;28;20020;-12
2022/04/08 04:00:33;;;;;;;50.10;26.65;;;5.90;82.70;;;;;;5096410;28;20024;-12
2022/04/08 04:02:59;;;;;;;53.05;27.00;;;5.90;82.40;;;;;;5096867;28;20028;-13
2022/04/08 04:05:25;;;;;;;50.70;26.65;;;5.80;82.50;;;;;;5095387;28;20430;-12
2022/04/08 04:07:50;;;;;;;46.28;24.52;;;5.70;82.90;;;;;;5095580;28;20037;-13
2022/04/08 04:10:16;;;;;;;45.70;24.42;;;5.70;82.60;;;;;;5096992;28;20490;-12
2022/04/08 04:12:42;;;;;;;45.58;24.83;;;5.60;82.60;;;;;;5096475;28;20024;-13
2022/04/08 04:15:09;;;;;;;46.40;25.40;;;5.60;82.80;;;;;;5096709;28;20036;-13
2022/04/08 04:17:36;;;;;;;55.97;31.00;;;5.60;82.60;;;;;;5096358;28;20023;-13
2022/04/08 04:20:04;;;;;;;52.47;28.52;;;5.60;82.70;;;;;;5096601;28;20020;-13
2022/04/08 04:22:30;;;;;;;49.95;27.13;;;5.50;82.60;;;;;;5096158;28;20441;-12
2022/04/08 04:24:56;;;;;;;56.03;30.27;;;5.50;82.60;;;;;;5096173;28;20555;-13
2022/04/08 04:27:22;;;;;;;61.75;32.30;;;5.40;82.90;;;;;;5096469;28;20119;-13
2022/04/08 04:29:47;;;;;;;56.58;30.98;;;5.40;82.80;;;;;;5096175;28;20384;-13
2022/04/08 04:32:14;;;;;;;72.50;36.83;;;5.40;82.70;;;;;;5096459;28;20031;-13
2022/04/08 04:34:40;;;;;;;72.20;36.13;;;5.40;82.80;;;;;;5095381;28;20365;-12
2022/04/08 04:37:08;;;;;;;71.68;37.92;;;5.40;82.80;;;;;;5097089;28;20536;-13
2022/04/08 04:39:35;;;;;;;69.85;37.88;;;5.40;82.80;;;;;;5096163;28;20107;-13
2022/04/08 04:42:01;;;;;;;65.53;34.55;;;5.30;82.90;;;;;;5095843;28;20426;-14
2022/04/08 04:44:28;;;;;;;64.65;34.05;;;5.30;83.10;;;;;;5095696;28;20085;-12
2022/04/08 04:46:55;;;;;;;60.15;32.35;;;5.20;83.00;;;;;;5095088;28;20361;-13
2022/04/08 04:49:22;;;;;;;61.17;32.28;;;5.20;83.00;;;;;;5096110;28;20032;-13
2022/04/08 04:51:52;;;;;;;73.95;37.05;;;5.30;83.20;;;;;;5095640;28;20056;-12
2022/04/08 04:54:18;;;;;;;53.75;29.38;;;5.30;83.60;;;;;;5095728;28;20028;-13
2022/04/08 04:56:44;;;;;;;53.00;28.63;;;5.40;83.40;;;;;;5095917;28;20127;-13
2022/04/08 04:59:11;;;;;;;58.67;31.38;;;5.40;83.50;;;;;;5095821;28;20027;-13
2022/04/08 05:01:37;;;;;;;67.40;35.40;;;5.40;83.30;;;;;;5095867;28;20040;-13
2022/04/08 05:04:03;;;;;;;56.78;30.98;;;5.40;83.30;;;;;;5095440;28;20391;-12
2022/04/08 05:06:30;;;;;;;75.28;38.17;;;5.40;83.30;;;;;;5095184;28;20449;-13
2022/04/08 05:08:56;;;;;;;64.82;33.90;;;5.40;83.20;;;;;;5095074;28;20098;-12
2022/04/08 05:11:22;;;;;;;71.55;37.80;;;5.50;83.50;;;;;;5095568;28;20044;-13
2022/04/08 05:13:48;;;;;;;64.45;34.08;;;5.50;83.80;;;;;;5095553;28;20032;-13
2022/04/08 05:16:14;;;;;;;51.85;28.98;;;5.50;84.00;;;;;;5095333;28;20039;-13
2022/04/08 05:18:40;;;;;;;55.13;30.15;;;5.50;83.40;;;;;;5095675;28;20024;-13
2022/04/08 05:21:06;;;;;;;59.03;31.70;;;5.60;83.40;;;;;;5094967;28;20021;-12
2022/04/08 05:23:32;;;;;;;87.35;41.85;;;5.60;83.50;;;;;;5095371;28;20039;-13
2022/04/08 05:25:59;;;;;;;61.55;34.13;;;5.70;83.00;;;;;;5095007;28;20496;-12
2022/04/08 05:28:25;;;;;;;98.70;48.58;;;5.70;83.60;;;;;;5094839;28;20017;-13
2022/04/08 05:30:51;;;;;;;68.38;35.28;;;5.80;83.90;;;;;;5095524;28;20028;-12
2022/04/08 05:33:17;;;;;;;57.10;33.05;;;5.90;83.70;;;;;;5094965;28;20476;-13
2022/04/08 05:35:43;;;;;;;65.07;34.15;;;6.00;83.90;;;;;;5095367;28;20024;-12
2022/04/08 05:38:09;;;;;;;73.85;38.55;;;6.20;83.10;;;;;;5094717;28;20115;-12
2022/04/08 05:40:35;;;;;;;59.92;31.45;;;6.30;83.10;;;;;;5094438;28;20135;-13
2022/04/08 05:43:01;;;;;;;66.53;35.90;;;6.50;82.70;;;;;;5094923;28;20032;-12
2022/04/08 05:45:27;;;;;;;64.60;34.83;;;6.80;83.00;;;;;;5095447;28;20024;-12
2022/04/08 05:47:55;;;;;;;64.80;31.80;;;7.00;82.80;;;;;;5094603;28;20032;-13
2022/04/08 05:50:22;;;;;;;72.60;37.72;;;7.20;82.10;;;;;;5094329;28;20030;-14
2022/04/08 05:52:48;;;;;;;78.35;40.03;;;7.40;82.20;;;;;;5094640;28;20032;-12
2022/04/08 05:55:15;;;;;;;69.80;38.28;;;7.60;81.90;;;;;;5094998;28;20468;-11
2022/04/08 05:57:41;;;;;;;70.07;40.45;;;7.70;81.60;;;;;;5094224;28;20415;-13
2022/04/08 06:00:13;;;;;;;73.07;38.67;;;7.80;81.70;;;;;;5094445;28;20024;-12
2022/04/08 06:02:43;;;;;;;78.57;41.17;;;7.90;81.60;;;;;;5094379;28;20055;-12
2022/04/08 06:05:10;;;;;;;78.22;39.50;;;7.90;81.70;;;;;;5094550;28;20028;-12
2022/04/08 06:07:43;;;;;;;84.53;42.28;;;8.10;81.60;;;;;;5094494;28;20523;-12
2022/04/08 06:10:09;;;;;;;89.35;43.00;;;8.20;81.40;;;;;;5094549;28;20032;-13
2022/04/08 06:12:34;;;;;;;76.60;40.67;;;8.40;81.50;;;;;;5094133;28;20085;-12
2022/04/08 06:15:00;;;;;;;72.55;38.85;;;8.60;81.50;;;;;;5094216;28;20492;-13
2022/04/08 06:17:38;;;;;;;74.97;40.30;;;8.70;81.40;;;;;;5094343;28;20496;-12
2022/04/08 06:20:11;;;;;;;81.68;42.33;;;9.00;81.40;;;;;;5094168;28;20391;-12
2022/04/08 06:22:41;;;;;;;85.60;47.70;;;9.30;81.00;;;;;;5093761;28;20048;-13
2022/04/08 06:25:10;;;;;;;88.63;45.13;;;9.60;80.80;;;;;;5094112;28;20099;-12
2022/04/08 06:27:36;;;;;;;82.22;42.50;;;9.90;80.60;;;;;;5094206;28;20020;-13
2022/04/08 06:30:03;;;;;;;73.38;39.38;;;10.20;80.30;;;;;;5093831;28;20407;-11
2022/04/08 06:32:29;;;;;;;78.85;41.30;;;10.50;79.90;;;;;;5093591;28;20488;-11
2022/04/08 06:34:55;;;;;;;71.85;39.00;;;10.80;78.90;;;;;;5094209;28;20100;-13
2022/04/08 06:37:27;;;;;;;70.10;37.20;;;10.90;78.50;;;;;;5092348;28;20044;-12
2022/04/08 06:39:53;;;;;;;75.30;39.65;;;11.20;78.50;;;;;;5093925;28;20437;-12
2022/04/08 06:42:19;;;;;;;65.32;34.10;;;11.50;78.00;;;;;;5093744;28;20027;-12
2022/04/08 06:44:45;;;;;;;65.43;35.78;;;11.90;78.00;;;;;;5093562;28;20476;-12
2022/04/08 06:47:10;;;;;;;79.20;46.25;;;12.30;77.20;;;;;;5093457;28;20020;-12
2022/04/08 06:49:39;;;;;;;74.18;39.88;;;12.70;75.90;;;;;;5094129;28;20060;-12
2022/04/08 06:52:06;;;;;;;63.47;35.25;;;12.90;73.70;;;;;;5093665;28;20043;-12
2022/04/08 06:54:32;;;;;;;68.30;39.17;;;13.00;74.50;;;;;;5093213;28;20029;-13
2022/04/08 06:56:58;;;;;;;75.85;41.00;;;13.30;74.30;;;;;;5092521;28;20024;-12
2022/04/08 06:59:23;;;;;;;73.32;39.42;;;13.50;73.40;;;;;;5092080;28;20105;-12
2022/04/08 07:01:50;;;;;;;77.80;41.92;;;13.60;73.20;;;;;;5093748;28;20058;-12
2022/04/08 07:04:15;;;;;;;75.65;39.25;;;13.60;71.20;;;;;;5093300;28;20024;-12
2022/04/08 07:06:41;;;;;;;70.13;38.00;;;13.60;71.70;;;;;;5093184;28;20028;-12
2022/04/08 07:09:07;;;;;;;73.32;40.90;;;13.50;72.20;;;;;;5092590;28;20052;-12
2022/04/08 07:11:34;;;;;;;64.65;37.75;;;13.40;72.00;;;;;;5093490;28;20410;-12
2022/04/08 07:14:01;;;;;;;70.07;40.22;;;13.30;73.10;;;;;;5093223;28;20024;-12
2022/04/08 07:16:28;;;;;;;68.28;39.03;;;13.30;73.60;;;;;;5093237;28;20073;-11
2022/04/08 07:18:54;;;;;;;67.38;37.88;;;13.30;73.70;;;;;;5093146;28;20032;-12
2022/04/08 07:21:21;;;;;;;64.15;37.10;;;13.40;73.40;;;;;;5091711;28;20549;-12
2022/04/08 07:23:48;;;;;;;69.30;37.85;;;13.40;73.20;;;;;;5093426;28;20047;-11
2022/04/08 07:26:14;;;;;;;61.00;35.40;;;13.30;73.40;;;;;;5092989;28;20020;-11
2022/04/08 07:28:40;;;;;;;64.78;37.50;;;13.30;73.40;;;;;;5093153;28;20095;-12
2022/04/08 07:31:06;;;;;;;68.22;38.45;;;13.40;73.50;;;;;;5093057;28;20024;-12
2022/04/08 07:33:32;;;;;;;62.25;35.72;;;13.40;73.40;;;;;;5093381;28;20016;-11
2022/04/08 07:36:00;;;;;;;60.35;34.00;;;13.50;71.80;;;;;;5093200;28;20112;-11
2022/04/08 07:38:26;;;;;;;59.42;33.13;;;13.50;72.90;;;;;;5092949;28;20077;-12
2022/04/08 07:40:52;;;;;;;60.47;33.35;;;13.40;72.90;;;;;;5093197;28;20373;-12
2022/04/08 07:43:19;;;;;;;58.38;32.00;;;13.40;72.10;;;;;;5093013;28;20024;-12
2022/04/08 07:45:45;;;;;;;56.05;31.17;;;13.50;71.70;;;;;;5093627;28;20032;-12
2022/04/08 07:48:11;;;;;;;55.60;31.35;;;13.50;72.10;;;;;;5093227;28;20035;-12
2022/04/08 07:50:37;;;;;;;52.92;31.38;;;13.60;72.20;;;;;;5092935;28;20016;-12
2022/04/08 07:53:04;;;;;;;47.17;25.08;;;13.90;72.00;;;;;;5092737;28;20380;-12
2022/04/08 07:55:30;;;;;;;41.90;24.65;;;14.30;71.30;;;;;;5092786;28;20020;-12
2022/04/08 07:57:56;;;;;;;37.72;23.17;;;14.60;70.80;;;;;;5092813;28;20545;-13
2022/04/08 08:00:27;;;;;;;45.22;25.88;;;15.00;70.30;;;;;;5092500;28;20032;-12
2022/04/08 08:02:53;;;;;;;42.30;23.75;;;15.30;67.60;;;;;;5092802;28;20025;-11
2022/04/08 08:05:20;;;;;;;39.92;21.98;;;15.40;67.40;;;;;;5092951;28;20082;-11
2022/04/08 08:07:55;;;;;;;43.33;24.02;;;15.70;67.20;;;;;;5091820;28;20020;-12
2022/04/08 08:10:22;;;;;;;40.35;24.30;;;15.90;65.80;;;;;;5092850;28;20052;-12
2022/04/08 08:12:50;;;;;;;35.50;21.67;;;16.00;65.80;;;;;;5093190;28;20078;-11
2022/04/08 08:15:18;;;;;;;45.22;24.80;;;16.10;66.10;;;;;;5092974;28;20046;-12
2022/04/08 08:17:44;;;;;;;38.90;21.40;;;16.20;65.70;;;;;;5092934;28;20028;-12
2022/04/08 08:20:13;;;;;;;37.13;21.58;;;16.30;65.50;;;;;;5093640;28;20497;-13
2022/04/08 08:22:41;;;;;;;35.15;20.95;;;16.40;64.80;;;;;;5096420;28;20028;-12
2022/04/08 08:25:09;;;;;;;34.08;20.63;;;16.40;64.80;;;;;;5096836;28;20077;-12
2022/04/08 08:27:48;;;;;;;44.70;24.83;;;16.60;64.60;;;;;;5096483;28;20024;-12
2022/04/08 08:30:16;;;;;;;37.60;22.95;;;16.60;63.20;;;;;;5096293;28;20028;-11
2022/04/08 08:32:47;;;;;;;38.63;22.50;;;16.70;63.90;;;;;;5096400;28;20031;-12
2022/04/08 08:35:17;;;;;;;40.13;22.65;;;16.80;63.50;;;;;;5096058;28;20361;-11
2022/04/08 08:37:43;;;;;;;41.15;22.02;;;16.80;63.00;;;;;;5096202;28;20024;-12
2022/04/08 08:40:14;;;;;;;36.65;21.00;;;16.80;63.40;;;;;;5096187;28;20108;-12
2022/04/08 08:42:42;;;;;;;36.78;20.70;;;16.80;63.50;;;;;;5096302;28;20040;-13
2022/04/08 08:45:10;;;;;;;32.85;18.33;;;16.80;62.70;;;;;;5096688;28;20120;-12
2022/04/08 08:47:37;;;;;;;35.25;18.52;;;16.80;63.10;;;;;;5096181;28;20020;-13
2022/04/08 08:50:05;;;;;;;30.83;17.27;;;16.90;63.00;;;;;;5095755;28;20362;-12
2022/04/08 08:52:32;;;;;;;37.88;19.95;;;16.90;62.60;;;;;;5095725;28;20032;-13
2022/04/08 08:54:59;;;;;;;36.22;19.70;;;16.90;63.00;;;;;;5096146;28;20074;-12
2022/04/08 08:57:25;;;;;;;36.80;20.00;;;17.10;62.70;;;;;;5094469;28;20028;-13
2022/04/08 08:59:52;;;;;;;31.02;18.15;;;17.40;62.70;;;;;;5095502;28;20074;-13
2022/04/08 09:02:21;;;;;;;33.58;19.45;;;17.70;61.80;;;;;;5095445;28;20023;-12
2022/04/08 09:04:49;;;;;;;31.23;17.15;;;18.00;60.60;;;;;;5095800;28;20032;-12
2022/04/08 09:07:29;;;;;;;31.13;19.10;;;18.40;59.90;;;;;;5095659;28;20024;-12
2022/04/08 09:09:57;;;;;;;30.38;18.52;;;18.50;59.30;;;;;;5095201;28;20504;-12
2022/04/08 09:12:25;;;;;;;32.58;20.02;;;18.60;58.60;;;;;;5095395;28;20028;-12
2022/04/08 09:14:57;;;;;;;38.53;20.92;;;18.70;58.80;;;;;;5095752;28;20050;-12
2022/04/08 09:17:26;;;;;;;31.70;17.30;;;18.80;58.30;;;;;;5095650;28;20043;-12
2022/04/08 09:19:53;;;;;;;33.28;20.45;;;18.90;58.40;;;;;;5095157;28;20085;-12
2022/04/08 09:22:21;;;;;;;28.40;18.20;;;19.10;57.50;;;;;;5095017;28;20025;-11
2022/04/08 09:24:48;;;;;;;37.30;19.67;;;19.40;57.40;;;;;;5095376;28;20036;-11
2022/04/08 09:27:14;;;;;;;34.63;19.23;;;19.50;56.90;;;;;;5095034;28;20107;-12
2022/04/08 09:29:44;;;;;;;33.60;20.02;;;19.70;56.60;;;;;;5095032;28;20055;-12
2022/04/08 09:32:12;;;;;;;29.75;18.33;;;19.80;56.70;;;;;;5094435;28;20054;-12
2022/04/08 09:34:40;;;;;;;32.40;18.90;;;20.00;57.80;;;;;;5094940;28;20043;-12
2022/04/08 09:37:12;;;;;;;38.05;20.13;;;20.40;55.80;;;;;;5094768;28;20103;-12
2022/04/08 09:39:58;;;;;;;31.25;19.00;;;20.30;54.10;;;;;;5094770;28;20521;-13
2022/04/08 09:42:40;;;;;;;35.67;20.05;;;20.30;54.80;;;;;;5094818;28;20085;-12
2022/04/08 09:45:06;;;;;;;29.63;16.27;;;20.40;53.90;;;;;;5095381;28;20016;-12
2022/04/08 09:47:32;;;;;;;34.60;20.38;;;20.60;54.00;;;;;;5094969;28;20032;-13
2022/04/08 09:49:58;;;;;;;31.35;18.70;;;20.80;54.50;;;;;;5094607;28;20020;-12
2022/04/08 09:52:26;;;;;;;30.42;19.58;;;20.80;53.70;;;;;;5094602;28;20024;-10
2022/04/08 09:54:56;;;;;;;28.25;17.77;;;20.70;53.40;;;;;;5094810;28;20149;-13
2022/04/08 09:57:22;;;;;;;35.40;20.20;;;20.70;54.10;;;;;;5094776;28;20016;-12
2022/04/08 09:59:55;;;;;;;30.45;19.17;;;20.80;54.50;;;;;;5094589;28;20043;-13
2022/04/08 10:02:24;;;;;;;32.37;19.57;;;20.90;53.70;;;;;;5094188;28;20032;-12
2022/04/08 10:04:52;;;;;;;37.95;20.67;;;21.20;54.00;;;;;;5094674;28;20070;-13
2022/04/08 10:07:19;;;;;;;34.38;20.67;;;21.50;53.50;;;;;;5094235;28;20081;-12
2022/04/08 10:10:16;;;;;;;34.00;19.13;;;21.70;51.50;;;;;;5094210;28;20040;-12
2022/04/08 10:13:10;;;;;;;34.22;19.73;;;21.90;52.60;;;;;;5094133;28;20024;-11
2022/04/08 10:15:45;;;;;;;32.15;19.50;;;22.10;52.10;;;;;;5094534;28;20016;-11
2022/04/08 10:18:10;;;;;;;31.35;20.70;;;22.20;49.70;;;;;;5094480;28;20024;-12
2022/04/08 10:20:40;;;;;;;33.28;20.77;;;22.30;51.20;;;;;;5093731;28;20503;-11
2022/04/08 10:23:18;;;;;;;27.73;18.55;;;22.20;51.50;;;;;;5094068;28;20027;-11
2022/04/08 10:25:58;;;;;;;29.90;17.83;;;22.50;50.00;;;;;;5094000;28;20106;-12
2022/04/08 10:28:36;;;;;;;32.78;19.77;;;22.50;49.80;;;;;;5094338;28;20027;-12
2022/04/08 10:31:15;;;;;;;24.17;15.45;;;22.70;49.90;;;;;;5093859;28;20032;-12
2022/04/08 10:33:48;;;;;;;22.65;14.68;;;22.90;47.80;;;;;;5093787;28;20043;-11
2022/04/08 10:36:14;;;;;;;30.85;19.95;;;23.00;49.10;;;;;;5093886;28;20028;-12
2022/04/08 10:38:40;;;;;;;32.28;19.80;;;23.00;48.60;;;;;;5094290;28;20480;-12
2022/04/08 10:41:10;;;;;;;32.55;18.85;;;23.00;49.90;;;;;;5093624;28;20036;-11
2022/04/08 10:43:52;;;;;;;27.85;18.23;;;23.10;49.10;;;;;;5092889;28;20031;-11
2022/04/08 10:46:29;;;;;;;34.75;21.10;;;23.30;49.30;;;;;;5093387;28;20024;-11
2022/04/08 10:48:57;;;;;;;34.58;20.83;;;23.40;49.40;;;;;;5093563;28;20024;-10
2022/04/08 10:51:23;;;;;;;28.95;18.67;;;23.30;47.20;;;;;;5093534;28;20035;-12
2022/04/08 10:53:51;;;;;;;30.48;19.67;;;23.20;48.20;;;;;;5093467;28;20545;-12
2022/04/08 10:56:17;;;;;;;27.02;17.30;;;23.20;48.70;;;;;;5093253;28;20032;-12
2022/04/08 10:58:46;;;;;;;29.58;17.63;;;23.40;47.90;;;;;;5093402;28;20090;-11
2022/04/08 11:01:22;;;;;;;27.13;16.77;;;23.40;48.10;;;;;;5093270;28;20024;-12
2022/04/08 11:03:55;;;;;;;29.08;15.98;;;23.70;47.40;;;;;;5093939;28;20112;-12
2022/04/08 11:06:24;;;;;;;24.27;13.85;;;23.70;44.90;;;;;;5093443;28;20028;-12
2022/04/08 11:08:50;;;;;;;27.50;16.67;;;23.60;45.50;;;;;;5093091;28;20479;-11
2022/04/08 11:11:26;;;;;;;26.30;16.65;;;23.60;46.70;;;;;;5093491;28;20107;-11
2022/04/08 11:13:56;;;;;;;27.13;16.58;;;23.50;48.00;;;;;;5093299;28;20103;-11
2022/04/08 11:16:23;;;;;;;26.17;15.30;;;23.70;47.90;;;;;;5093215;28;20417;-11
2022/04/08 11:18:49;;;;;;;27.45;18.63;;;24.00;47.00;;;;;;5093523;28;20070;-12
2022/04/08 11:21:18;;;;;;;25.88;15.55;;;24.30;45.00;;;;;;5093080;28;20044;-12
2022/04/08 11:23:55;;;;;;;29.83;16.38;;;24.40;45.90;;;;;;5093030;28;20024;-11
2022/04/08 11:26:21;;;;;;;21.50;13.18;;;24.50;44.50;;;;;;5093520;28;20036;-11
2022/04/08 11:28:48;;;;;;;27.77;15.65;;;24.60;45.30;;;;;;5093443;28;20031;-12
2022/04/08 11:31:20;;;;;;;24.58;14.45;;;24.90;44.50;;;;;;5093381;28;20065;-12
2022/04/08 11:33:47;;;;;;;27.67;15.50;;;25.30;44.40;;;;;;5093405;28;20024;-11
2022/04/08 11:36:20;;;;;;;17.45;11.98;;;25.70;43.00;;;;;;5093095;28;20031;-11
2022/04/08 11:38:46;;;;;;;26.20;14.57;;;25.90;42.20;;;;;;5092934;28;20499;-11
2022/04/08 11:41:20;;;;;;;18.75;13.35;;;26.00;42.40;;;;;;5093437;28;20020;-11
2022/04/08 11:43:47;;;;;;;24.38;15.77;;;26.20;42.30;;;;;;5093326;28;20024;-12
2022/04/08 11:46:15;;;;;;;28.23;16.33;;;26.50;41.90;;;;;;5093162;28;20039;-13
2022/04/08 11:48:42;;;;;;;27.52;16.52;;;26.60;41.70;;;;;;5093510;28;20501;-13
2022/04/08 11:51:08;;;;;;;24.23;14.45;;;26.60;41.20;;;;;;5093142;28;20027;-12
2022/04/08 11:53:53;;;;;;;21.40;13.77;;;26.70;40.00;;;;;;5092856;28;20099;-12
2022/04/08 11:56:25;;;;;;;24.63;15.68;;;26.60;40.30;;;;;;5095648;28;20052;-12
2022/04/08 11:59:01;;;;;;;20.15;14.10;;;26.60;41.00;;;;;;5096809;28;20031;-12
2022/04/08 12:01:34;;;;;;;22.88;14.40;;;26.70;41.60;;;;;;5097364;28;20028;-12
2022/04/08 12:04:05;;;;;;;23.98;15.23;;;26.80;41.00;;;;;;5097561;28;20035;-12
2022/04/08 12:06:42;;;;;;;24.15;15.45;;;26.80;41.20;;;;;;5096701;28;20028;-13
2022/04/08 12:09:10;;;;;;;17.17;11.70;;;27.00;40.80;;;;;;5096259;28;20051;-12
2022/04/08 12:11:38;;;;;;;20.90;12.55;;;27.30;41.10;;;;;;5096866;28;20047;-11
2022/04/08 12:14:06;;;;;;;23.13;13.68;;;27.70;39.60;;;;;;5096503;28;20460;-10
2022/04/08 12:16:32;;;;;;;24.27;16.33;;;27.90;39.50;;;;;;5096520;28;20032;-12
2022/04/08 12:18:58;;;;;;;25.23;15.15;;;27.90;38.90;;;;;;5096741;28;20024;-12
2022/04/08 12:21:27;;;;;;;25.27;16.58;;;27.90;39.30;;;;;;5096600;28;20051;-12
2022/04/08 12:24:01;;;;;;;24.48;15.15;;;27.40;40.20;;;;;;5096200;28;20422;-13
2022/04/08 12:26:35;;;;;;;21.77;14.02;;;27.30;40.20;;;;;;5096448;28;20107;-12
2022/04/08 12:29:07;;;;;;;17.85;12.00;;;27.50;40.60;;;;;;5096552;28;20031;-11
2022/04/08 12:31:34;;;;;;;18.75;12.85;;;27.40;40.10;;;;;;5096495;28;20081;-12
2022/04/08 12:34:02;;;;;;;22.25;13.93;;;27.70;39.80;;;;;;5096071;28;20023;-12
2022/04/08 12:36:28;;;;;;;19.75;12.65;;;27.60;39.60;;;;;;5095825;28;20071;-12